Bergen, North Dakota
Current Conditions -  °F | °C
As of 11:54 AM on Friday 24 Oct 2014 (Local Time) from KMOT Reporting Station
Clear Clear  
Wind Chill: 64°   Ceiling: Unl
Heat Index: 64°   Visibility: 10mi
Dew Point: 34°   Wind: 25mph
Humidity: 33%   Direction: 260°W
Pressure: 29.84"   Gusts: 32mph
Location:  47.9335°N, 100.777°W
Report Text: KMOT 241654Z 26022G28KT 10SM CLR 18/01 A2984 RMK AO2 PK WND 26030/1631 SLP104 T01780011
Loading
Personal Weather Stations






























Interactive Weather Map
Tropical Storm Tracking
New forecast layout! Learn more

10-Day Weather Forecast

Advertisements
Track Severe Weather on mobile